Time;durP1;ratioP1;P1;durP2;ratioP2;P2;SDS_P1;SDS_P2;PMS_P1;PMS_P2;Temp;Humidity;BMP_temperature;BMP_pressure;BME280_temperature;BME280_humidity;BME280_pressure;Samples;Min_cycle;Max_cycle;Signal;HPM_P1;HPM_P2
2022/01/22 00:00:21;;;;;;;9.77;7.13;;;2.50;99.90;;;;;;2080517;28;20018;-73
2022/01/22 00:01:21;;;;;;;9.18;7.38;;;2.50;99.90;;;;;;2094830;28;20041;-71
2022/01/22 00:02:22;;;;;;;9.80;7.28;;;2.50;99.90;;;;;;2090729;28;20035;-70
2022/01/22 00:03:23;;;;;;;8.32;7.25;;;2.50;99.90;;;;;;2089613;28;20035;-71
2022/01/22 00:04:24;;;;;;;8.73;7.20;;;2.50;99.90;;;;;;2080894;28;20052;-72
2022/01/22 00:05:25;;;;;;;9.13;7.47;;;2.50;99.90;;;;;;2080698;28;20025;-75
2022/01/22 00:06:28;;;;;;;8.90;6.97;;;2.50;99.90;;;;;;2085181;28;20034;-72
2022/01/22 00:07:29;;;;;;;7.53;6.50;;;2.50;99.90;;;;;;2084573;28;20092;-73
2022/01/22 00:08:30;;;;;;;8.95;7.15;;;2.50;99.90;;;;;;2091459;28;20681;-72
2022/01/22 00:09:38;;;;;;;9.10;6.80;;;2.50;99.90;;;;;;2089190;28;20036;-74
2022/01/22 00:10:42;;;;;;;9.02;7.07;;;2.50;99.90;;;;;;2083578;28;20029;-71
2022/01/22 00:11:51;;;;;;;10.07;7.47;;;2.50;99.90;;;;;;2089976;28;20044;-73
2022/01/22 00:15:24;;;;;;;10.52;7.20;;;2.50;99.90;;;;;;2094469;28;20032;-72
2022/01/22 00:16:25;;;;;;;8.27;6.82;;;2.50;99.90;;;;;;2093185;28;20041;-72
2022/01/22 00:17:25;;;;;;;8.27;7.00;;;2.50;99.90;;;;;;2088526;28;20070;-74
2022/01/22 00:18:26;;;;;;;9.05;6.90;;;2.50;99.90;;;;;;2086421;28;20029;-72
2022/01/22 00:19:27;;;;;;;10.18;7.60;;;2.50;99.90;;;;;;2084383;28;20425;-73
2022/01/22 00:20:29;;;;;;;9.02;7.05;;;2.50;99.90;;;;;;2095648;28;20017;-71
2022/01/22 00:21:30;;;;;;;8.50;6.63;;;2.50;99.90;;;;;;2095269;28;20024;-74
2022/01/22 00:22:33;;;;;;;7.75;6.20;;;2.50;99.90;;;;;;2085663;28;20033;-72
2022/01/22 00:23:39;;;;;;;8.13;6.85;;;2.50;99.90;;;;;;2086151;28;20047;-74
2022/01/22 00:24:40;;;;;;;8.40;6.78;;;2.50;99.90;;;;;;2093056;28;20108;-74
2022/01/22 00:25:46;;;;;;;8.27;6.55;;;2.50;99.90;;;;;;2090580;28;20461;-74
2022/01/22 00:26:47;;;;;;;7.53;6.35;;;2.50;99.90;;;;;;2088081;28;20033;-74
2022/01/22 00:27:50;;;;;;;9.52;6.50;;;2.50;99.90;;;;;;2086108;28;20049;-73
2022/01/22 00:28:51;;;;;;;9.60;6.78;;;2.50;99.90;;;;;;2089175;28;20512;-72
2022/01/22 00:29:52;;;;;;;7.65;6.65;;;2.50;99.90;;;;;;2081589;28;20028;-72
2022/01/22 00:30:53;;;;;;;7.20;6.18;;;2.50;99.90;;;;;;2082969;28;20022;-72
2022/01/22 00:31:54;;;;;;;8.02;6.70;;;2.50;99.90;;;;;;2086872;28;20095;-73
2022/01/22 00:32:55;;;;;;;7.40;6.30;;;2.50;99.90;;;;;;2080171;28;20631;-73
2022/01/22 00:33:56;;;;;;;6.85;6.00;;;2.50;99.90;;;;;;2080216;28;20105;-73
2022/01/22 00:34:56;;;;;;;8.65;6.60;;;2.40;99.90;;;;;;2080389;28;20064;-71
2022/01/22 00:35:57;;;;;;;6.63;5.90;;;2.50;99.90;;;;;;2089392;28;20029;-72
2022/01/22 00:36:59;;;;;;;7.38;6.25;;;2.50;99.90;;;;;;2096541;28;20028;-72
2022/01/22 00:38:00;;;;;;;6.90;5.45;;;2.50;99.90;;;;;;2088886;28;20432;-73
2022/01/22 00:39:01;;;;;;;8.10;6.20;;;2.50;99.90;;;;;;2074764;28;20036;-72
2022/01/22 00:40:05;;;;;;;6.90;5.93;;;2.50;99.90;;;;;;2080772;28;20022;-72
2022/01/22 00:41:06;;;;;;;6.82;5.40;;;2.50;99.90;;;;;;2091175;28;20497;-73
2022/01/22 00:42:12;;;;;;;6.72;5.80;;;2.50;99.90;;;;;;2080505;28;20045;-73
2022/01/22 00:43:12;;;;;;;8.57;6.10;;;2.50;99.90;;;;;;2074351;28;20030;-72
2022/01/22 00:44:13;;;;;;;7.60;5.80;;;2.50;99.90;;;;;;2080239;28;20031;-72
2022/01/22 00:45:16;;;;;;;10.07;6.78;;;2.50;99.90;;;;;;2080163;28;20029;-73
2022/01/22 00:46:16;;;;;;;6.82;5.93;;;2.50;99.90;;;;;;2084592;28;20026;-75
2022/01/22 00:47:20;;;;;;;7.03;6.07;;;2.50;99.90;;;;;;2092751;28;20987;-74
2022/01/22 00:48:21;;;;;;;7.72;6.05;;;2.50;99.90;;;;;;2086389;28;20021;-74
2022/01/22 00:49:22;;;;;;;7.75;6.35;;;2.50;99.90;;;;;;2075136;28;20038;-71
2022/01/22 00:50:24;;;;;;;8.00;6.65;;;2.50;99.90;;;;;;2080972;28;20034;-72
2022/01/22 00:51:25;;;;;;;9.38;6.55;;;2.50;99.90;;;;;;2072020;28;20076;-72
2022/01/22 00:52:26;;;;;;;8.40;6.50;;;2.50;99.90;;;;;;2077691;28;20107;-72
2022/01/22 00:53:27;;;;;;;7.05;5.90;;;2.50;99.90;;;;;;2074324;28;20792;-72
2022/01/22 00:54:28;;;;;;;8.20;6.47;;;2.50;99.90;;;;;;2077283;28;20025;-73
2022/01/22 00:55:29;;;;;;;8.30;6.70;;;2.50;99.90;;;;;;2084456;28;20033;-73
2022/01/22 00:56:31;;;;;;;8.77;6.75;;;2.50;99.90;;;;;;2097003;28;20310;-72
2022/01/22 00:57:32;;;;;;;8.20;6.88;;;2.50;99.90;;;;;;2088549;28;20036;-74
2022/01/22 00:58:32;;;;;;;8.85;6.60;;;2.50;99.90;;;;;;2080476;28;20474;-73
2022/01/22 00:59:33;;;;;;;8.27;6.88;;;2.50;99.90;;;;;;2087030;28;20042;-73
2022/01/22 01:00:34;;;;;;;8.73;6.93;;;2.50;99.90;;;;;;2091801;28;20598;-73
2022/01/22 01:01:35;;;;;;;9.10;6.60;;;2.50;99.90;;;;;;2082878;28;20113;-73
2022/01/22 01:02:36;;;;;;;8.07;6.55;;;2.50;99.90;;;;;;2088794;28;20102;-73
2022/01/22 01:03:37;;;;;;;8.48;6.63;;;2.50;99.90;;;;;;2096340;28;20029;-72
2022/01/22 01:04:38;;;;;;;8.57;6.60;;;2.50;99.90;;;;;;2097820;28;20021;-73
2022/01/22 01:05:39;;;;;;;8.52;6.80;;;2.50;99.90;;;;;;2088303;28;20075;-74
2022/01/22 01:06:40;;;;;;;11.13;7.07;;;2.50;99.90;;;;;;2080127;28;20486;-73
2022/01/22 01:07:41;;;;;;;9.60;6.60;;;2.50;99.90;;;;;;2079886;28;20026;-74
2022/01/22 01:08:43;;;;;;;7.93;6.07;;;2.60;99.90;;;;;;2081113;28;20477;-74
2022/01/22 01:09:45;;;;;;;7.40;5.90;;;2.60;99.90;;;;;;2079959;28;20057;-71
2022/01/22 01:10:45;;;;;;;8.43;6.40;;;2.60;99.90;;;;;;2080135;28;20517;-74
2022/01/22 01:11:53;;;;;;;8.20;6.47;;;2.60;99.90;;;;;;2080080;28;20041;-72
2022/01/22 01:12:54;;;;;;;8.02;5.95;;;2.60;99.90;;;;;;2080835;28;20485;-72
2022/01/22 01:13:59;;;;;;;8.48;6.10;;;2.60;99.90;;;;;;2079823;28;20029;-72
2022/01/22 01:15:17;;;;;;;7.38;6.00;;;2.60;99.90;;;;;;2072947;28;20482;-72
2022/01/22 01:16:22;;;;;;;8.32;6.57;;;2.60;99.90;;;;;;2078839;28;20064;-73
2022/01/22 01:32:15;;;;;;;8.00;6.43;;;2.80;99.90;;;;;;2081584;28;20536;-73
2022/01/22 01:33:23;;;;;;;8.93;6.97;;;2.80;99.90;;;;;;2084053;28;20032;-73
2022/01/22 01:34:24;;;;;;;7.70;6.30;;;2.80;99.90;;;;;;2082308;28;20034;-73
2022/01/22 01:35:27;;;;;;;8.73;6.57;;;2.80;99.90;;;;;;2078458;28;20053;-73
2022/01/22 01:36:27;;;;;;;8.13;6.68;;;2.80;99.90;;;;;;2081229;28;20033;-73
2022/01/22 01:37:28;;;;;;;9.32;6.68;;;2.80;99.90;;;;;;2088872;28;20025;-75
2022/01/22 01:38:34;;;;;;;9.50;6.90;;;2.80;99.90;;;;;;2072561;28;20026;-73
2022/01/22 01:39:37;;;;;;;9.20;7.05;;;2.90;99.90;;;;;;2065675;28;20037;-74
2022/01/22 01:40:42;;;;;;;9.40;7.18;;;2.90;99.90;;;;;;2072886;28;20021;-74
2022/01/22 01:41:56;;;;;;;8.57;6.63;;;2.90;99.90;;;;;;2064533;28;20069;-73
2022/01/22 01:43:58;;;;;;;8.27;6.85;;;2.90;99.90;;;;;;2071715;28;20030;-75
2022/01/22 01:45:22;;;;;;;8.98;7.00;;;2.90;99.90;;;;;;2083189;28;20361;-76
2022/01/22 01:46:29;;;;;;;9.25;7.32;;;2.90;99.90;;;;;;2080728;28;20022;-73
2022/01/22 01:47:30;;;;;;;9.75;7.25;;;2.90;99.90;;;;;;2079012;28;20528;-73
2022/01/22 01:48:37;;;;;;;8.05;6.53;;;2.90;99.90;;;;;;2073081;28;20030;-74
2022/01/22 01:49:38;;;;;;;10.05;7.93;;;2.90;99.90;;;;;;2074037;28;20038;-75
2022/01/22 01:50:46;;;;;;;9.07;6.85;;;3.00;99.90;;;;;;2081673;28;20060;-74
2022/01/22 01:51:47;;;;;;;8.77;6.38;;;3.00;99.90;;;;;;2083850;28;20025;-73
2022/01/22 01:53:05;;;;;;;8.20;6.70;;;3.00;99.90;;;;;;2080722;28;20032;-73
2022/01/22 01:54:24;;;;;;;10.55;7.57;;;3.00;99.90;;;;;;2071540;28;20507;-72
2022/01/22 01:55:35;;;;;;;10.07;6.68;;;3.00;99.90;;;;;;2069452;28;20026;-73
2022/01/22 01:58:09;;;;;;;8.80;6.20;;;3.00;99.90;;;;;;2063006;28;20038;-73
2022/01/22 01:59:18;;;;;;;8.55;6.68;;;3.00;99.90;;;;;;2073173;28;20137;-73
2022/01/22 02:00:25;;;;;;;8.52;6.72;;;3.00;99.90;;;;;;2072790;28;20030;-73
2022/01/22 02:01:29;;;;;;;8.32;6.93;;;3.00;99.90;;;;;;2065062;28;20027;-74
2022/01/22 02:02:32;;;;;;;8.85;6.35;;;3.00;99.90;;;;;;2064379;28;20136;-75
2022/01/22 02:03:33;;;;;;;8.30;6.60;;;3.00;99.90;;;;;;2079381;28;20025;-75
2022/01/22 02:04:47;;;;;;;9.75;7.22;;;3.00;99.90;;;;;;2080204;28;20105;-75
2022/01/22 02:05:47;;;;;;;9.23;7.00;;;3.00;99.90;;;;;;2079691;28;20559;-74
2022/01/22 02:06:48;;;;;;;9.10;7.28;;;3.00;99.90;;;;;;2072079;28;20501;-72
2022/01/22 02:07:53;;;;;;;11.13;7.57;;;3.00;99.90;;;;;;2071300;28;20097;-72
2022/01/22 02:08:54;;;;;;;10.43;7.90;;;3.10;99.90;;;;;;2073064;28;20030;-72
2022/01/22 02:09:59;;;;;;;9.07;7.35;;;3.10;99.90;;;;;;2080303;28;20086;-74
2022/01/22 02:11:02;;;;;;;10.23;7.80;;;3.10;99.90;;;;;;2087552;28;20013;-74
2022/01/22 02:14:00;;;;;;;12.43;8.50;;;3.10;99.90;;;;;;2078403;28;20025;-72
2022/01/22 02:24:35;;;;;;;10.57;7.72;;;3.20;99.90;;;;;;2088244;28;20680;-74
2022/01/22 02:25:35;;;;;;;11.57;8.40;;;3.20;99.90;;;;;;2079417;28;20033;-72
2022/01/22 02:26:37;;;;;;;11.30;7.95;;;3.20;99.90;;;;;;2073844;28;20193;-72
2022/01/22 02:27:38;;;;;;;9.85;7.90;;;3.20;99.90;;;;;;2087764;28;20052;-73
2022/01/22 02:28:42;;;;;;;11.73;8.30;;;3.20;99.90;;;;;;2087925;28;20484;-74
2022/01/22 02:29:43;;;;;;;10.02;7.72;;;3.20;99.90;;;;;;2084660;28;20685;-72
2022/01/22 02:31:04;;;;;;;11.10;7.75;;;3.20;99.90;;;;;;2080119;28;20072;-72
2022/01/22 02:33:59;;;;;;;8.85;6.50;;;3.20;99.90;;;;;;2072381;28;20045;-72
2022/01/22 02:35:28;;;;;;;8.10;6.13;;;3.20;99.90;;;;;;2078038;28;20030;-72
2022/01/22 02:36:56;;;;;;;7.80;6.10;;;3.20;99.90;;;;;;2078958;28;20710;-72
2022/01/22 02:37:49;;;;;;;8.48;6.28;;;3.30;99.90;;;;;;2082791;28;20583;-72
2022/01/22 02:40:05;;;;;;;8.27;6.45;;;3.20;99.90;;;;;;2080979;28;20033;-74
2022/01/22 02:41:12;;;;;;;7.93;6.18;;;3.20;99.90;;;;;;2087967;28;20041;-73
2022/01/22 02:42:14;;;;;;;8.40;6.10;;;3.20;99.90;;;;;;2079945;28;20716;-73
2022/01/22 02:43:16;;;;;;;8.63;6.50;;;3.20;99.90;;;;;;2074494;28;20026;-74
2022/01/22 02:44:35;;;;;;;9.45;6.40;;;3.30;99.90;;;;;;2080051;28;20060;-74
2022/01/22 02:45:43;;;;;;;8.27;6.15;;;3.30;99.90;;;;;;2091266;28;20525;-72
2022/01/22 02:46:45;;;;;;;9.10;6.70;;;3.30;99.90;;;;;;2095166;28;20028;-72
2022/01/22 02:47:46;;;;;;;8.90;6.50;;;3.30;99.90;;;;;;2087846;28;20032;-72
2022/01/22 02:48:54;;;;;;;9.18;6.63;;;3.30;99.90;;;;;;2081389;28;20397;-72
2022/01/22 02:49:55;;;;;;;8.95;6.53;;;3.30;99.90;;;;;;2080651;28;20026;-72
2022/01/22 02:50:56;;;;;;;9.40;6.22;;;3.30;99.90;;;;;;2087949;28;20645;-73
2022/01/22 02:52:09;;;;;;;9.48;6.43;;;3.30;99.90;;;;;;2087680;28;20025;-74
2022/01/22 02:53:13;;;;;;;10.45;7.03;;;3.40;99.90;;;;;;2081688;28;20052;-71
2022/01/22 02:54:14;;;;;;;11.07;6.82;;;3.40;99.90;;;;;;2072343;28;20394;-73
2022/01/22 02:55:15;;;;;;;11.45;7.53;;;3.40;99.90;;;;;;2079013;28;20057;-73
2022/01/22 02:56:17;;;;;;;13.43;7.82;;;3.40;99.90;;;;;;2079326;28;20076;-72
2022/01/22 02:57:17;;;;;;;11.07;6.88;;;3.40;99.90;;;;;;2071410;28;20026;-72
2022/01/22 02:58:24;;;;;;;13.80;7.60;;;3.40;99.90;;;;;;2072328;28;20018;-71
2022/01/22 02:59:26;;;;;;;12.07;7.45;;;3.40;99.90;;;;;;2083445;28;20033;-72
2022/01/22 03:00:28;;;;;;;11.98;7.57;;;3.40;99.90;;;;;;2095949;28;20090;-73
2022/01/22 03:01:28;;;;;;;13.50;7.80;;;3.40;99.90;;;;;;2088832;28;20051;-72
2022/01/22 03:02:29;;;;;;;11.30;7.18;;;3.40;99.90;;;;;;2090719;28;20140;-72
2022/01/22 03:03:29;;;;;;;13.18;7.80;;;3.40;99.90;;;;;;2080151;28;20045;-73
2022/01/22 03:04:31;;;;;;;11.43;7.40;;;3.40;99.90;;;;;;2088869;28;20029;-73
2022/01/22 03:05:32;;;;;;;16.02;8.15;;;3.40;99.90;;;;;;2090685;28;20025;-72
2022/01/22 03:06:33;;;;;;;14.85;8.00;;;3.40;99.90;;;;;;2082385;28;20025;-74
2022/01/22 03:07:35;;;;;;;14.48;7.60;;;3.40;99.90;;;;;;2090153;28;20033;-74
2022/01/22 03:08:39;;;;;;;16.08;8.18;;;3.40;99.90;;;;;;2081887;28;20029;-74
2022/01/22 03:09:43;;;;;;;12.13;7.40;;;3.40;99.90;;;;;;2082521;28;20722;-73
2022/01/22 03:10:51;;;;;;;9.95;6.40;;;3.40;99.90;;;;;;2083677;28;20040;-74
2022/01/22 03:17:49;;;;;;;9.40;6.20;;;3.50;99.90;;;;;;2091287;28;20021;-71
2022/01/22 03:22:02;;;;;;;12.25;6.60;;;3.50;99.90;;;;;;2097660;28;20033;-72
2022/01/22 03:27:21;;;;;;;7.65;5.03;;;3.50;99.90;;;;;;2085490;28;20030;-72
2022/01/22 03:28:26;;;;;;;8.38;5.10;;;3.60;99.90;;;;;;2090819;28;20070;-74
2022/01/22 03:29:39;;;;;;;8.45;5.25;;;3.60;99.90;;;;;;2082164;28;20472;-73
2022/01/22 03:30:41;;;;;;;7.25;4.80;;;3.60;99.90;;;;;;2078863;28;20720;-72
2022/01/22 03:31:42;;;;;;;10.60;5.55;;;3.60;99.90;;;;;;2072901;28;20041;-73
2022/01/22 03:32:48;;;;;;;9.93;5.15;;;3.60;99.90;;;;;;2065949;28;20030;-73
2022/01/22 03:33:49;;;;;;;13.05;5.80;;;3.60;99.90;;;;;;2074051;28;20378;-73
2022/01/22 03:34:56;;;;;;;9.25;5.45;;;3.60;99.90;;;;;;2066925;28;20033;-74
2022/01/22 03:35:59;;;;;;;7.93;4.95;;;3.60;99.90;;;;;;2076357;28;20174;-74
2022/01/22 03:37:00;;;;;;;11.82;5.72;;;3.60;99.90;;;;;;2082442;28;20026;-74
2022/01/22 03:38:04;;;;;;;10.13;5.53;;;3.70;99.90;;;;;;2074101;28;20045;-74
2022/01/22 03:39:07;;;;;;;12.90;6.40;;;3.60;99.90;;;;;;2078294;28;20064;-74
2022/01/22 03:40:10;;;;;;;15.70;6.63;;;3.70;99.90;;;;;;2082295;28;20401;-74
2022/01/22 03:41:11;;;;;;;10.32;5.82;;;3.70;99.90;;;;;;2083228;28;20033;-72
2022/01/22 03:42:12;;;;;;;11.93;6.38;;;3.70;99.90;;;;;;2089888;28;20495;-72
2022/01/22 03:43:13;;;;;;;10.35;6.13;;;3.70;99.90;;;;;;2082468;28;20060;-74
2022/01/22 03:44:14;;;;;;;10.80;6.35;;;3.70;99.90;;;;;;2081899;28;20021;-74
2022/01/22 03:45:15;;;;;;;11.45;6.20;;;3.70;99.90;;;;;;2082285;28;20029;-71
2022/01/22 03:46:16;;;;;;;14.07;6.47;;;3.70;99.90;;;;;;2075824;28;20064;-72
2022/01/22 03:47:17;;;;;;;11.52;6.57;;;3.70;99.90;;;;;;2081281;28;20484;-72
2022/01/22 03:48:18;;;;;;;13.50;6.95;;;3.70;99.90;;;;;;2081131;28;20033;-75
2022/01/22 03:49:19;;;;;;;10.48;6.53;;;3.70;99.90;;;;;;2080755;28;20030;-72
2022/01/22 03:50:20;;;;;;;11.75;6.25;;;3.70;99.90;;;;;;2080940;28;20030;-74
2022/01/22 03:51:22;;;;;;;7.60;4.70;;;3.70;99.90;;;;;;2072637;28;20033;-71
2022/01/22 03:52:22;;;;;;;7.70;4.85;;;3.70;99.90;;;;;;2075257;28;20513;-73
2022/01/22 03:53:23;;;;;;;8.68;4.80;;;3.70;99.90;;;;;;2072290;28;20556;-72
2022/01/22 03:54:25;;;;;;;6.82;4.15;;;3.80;99.90;;;;;;2075761;28;20034;-74
2022/01/22 03:55:53;;;;;;;7.28;4.40;;;3.70;99.90;;;;;;2072793;28;20061;-74
2022/01/22 03:56:54;;;;;;;6.57;4.22;;;3.80;99.90;;;;;;2080828;28;20040;-73
2022/01/22 03:58:06;;;;;;;6.43;4.22;;;3.80;99.90;;;;;;2084519;28;20630;-73
2022/01/22 03:59:09;;;;;;;7.00;4.10;;;3.80;99.90;;;;;;2081193;28;20126;-72
2022/01/22 04:00:29;;;;;;;6.38;4.15;;;3.80;99.90;;;;;;2075671;28;20034;-72
2022/01/22 04:03:58;;;;;;;5.43;3.67;;;3.80;99.90;;;;;;2083921;28;20027;-72
2022/01/22 04:05:02;;;;;;;5.75;3.92;;;3.70;99.90;;;;;;2096254;28;20483;-74
2022/01/22 04:08:35;;;;;;;5.32;3.85;;;3.70;99.90;;;;;;2081766;28;20025;-74
2022/01/22 04:09:41;;;;;;;5.88;4.05;;;3.70;99.90;;;;;;2085680;28;20063;-72
2022/01/22 04:10:42;;;;;;;6.90;4.20;;;3.70;99.90;;;;;;2088603;28;20025;-73
2022/01/22 04:11:45;;;;;;;6.00;3.92;;;3.70;99.90;;;;;;2080749;28;20034;-72
2022/01/22 04:13:50;;;;;;;6.30;3.83;;;3.70;99.90;;;;;;2097371;28;20038;-72
2022/01/22 04:15:00;;;;;;;7.63;4.05;;;3.70;99.90;;;;;;2088963;28;20040;-74
2022/01/22 04:16:01;;;;;;;5.30;3.70;;;3.70;99.90;;;;;;2082174;28;20079;-74
2022/01/22 04:17:21;;;;;;;5.53;3.60;;;3.60;99.90;;;;;;2080724;28;20439;-73
2022/01/22 04:25:22;;;;;;;5.45;3.30;;;3.60;99.90;;;;;;2064005;28;20030;-73
2022/01/22 04:26:39;;;;;;;5.20;3.28;;;3.60;99.90;;;;;;2062259;28;20030;-72
2022/01/22 04:27:40;;;;;;;6.28;3.30;;;3.60;99.90;;;;;;2077459;28;20036;-73
2022/01/22 04:28:42;;;;;;;3.97;2.97;;;3.60;99.90;;;;;;2098018;28;20102;-75
2022/01/22 04:29:43;;;;;;;4.75;3.00;;;3.60;99.90;;;;;;2089150;28;20527;-75
2022/01/22 04:30:45;;;;;;;5.65;3.28;;;3.60;99.90;;;;;;2089179;28;20031;-74
2022/01/22 04:31:46;;;;;;;4.55;3.17;;;3.50;99.90;;;;;;2088937;28;20029;-75
2022/01/22 04:32:48;;;;;;;5.40;2.90;;;3.50;99.90;;;;;;2081052;28;20034;-72
2022/01/22 04:33:49;;;;;;;4.60;2.92;;;3.50;99.90;;;;;;2077312;28;20505;-72
2022/01/22 04:34:49;;;;;;;4.65;2.90;;;3.60;99.90;;;;;;2079389;28;20064;-73
2022/01/22 04:35:50;;;;;;;3.28;2.63;;;3.50;99.90;;;;;;2080456;28;20132;-74
2022/01/22 04:36:50;;;;;;;4.72;2.83;;;3.50;99.90;;;;;;2081133;28;20579;-73
2022/01/22 04:37:51;;;;;;;4.47;3.00;;;3.60;99.90;;;;;;2084221;28;20037;-74
2022/01/22 04:38:52;;;;;;;5.47;2.83;;;3.50;99.90;;;;;;2089145;28;20055;-73
2022/01/22 04:39:53;;;;;;;4.05;2.92;;;3.50;99.90;;;;;;2094314;28;20112;-73
2022/01/22 04:40:53;;;;;;;5.72;3.30;;;3.60;99.90;;;;;;2089578;28;20033;-73
2022/01/22 04:41:56;;;;;;;4.65;3.40;;;3.60;99.90;;;;;;2081263;28;20034;-73
2022/01/22 04:42:57;;;;;;;6.95;3.47;;;3.60;99.90;;;;;;2073128;28;20464;-73
2022/01/22 04:44:01;;;;;;;6.97;3.47;;;3.60;99.90;;;;;;2073549;28;20744;-74
2022/01/22 04:45:13;;;;;;;6.05;3.35;;;3.60;99.90;;;;;;2082143;28;20017;-74
2022/01/22 04:47:35;;;;;;;5.53;3.17;;;3.60;99.90;;;;;;2065673;28;20026;-73
2022/01/22 04:48:52;;;;;;;6.65;3.60;;;3.60;99.90;;;;;;2079840;28;20029;-73
2022/01/22 04:52:43;;;;;;;6.50;4.30;;;3.60;99.90;;;;;;2082663;28;20029;-73
2022/01/22 04:55:04;;;;;;;5.80;3.50;;;3.60;99.90;;;;;;2089231;28;20048;-74
2022/01/22 04:56:07;;;;;;;7.53;3.90;;;3.60;99.90;;;;;;2089391;28;20063;-73
2022/01/22 04:57:08;;;;;;;4.60;3.35;;;3.50;99.90;;;;;;2089354;28;20070;-73
2022/01/22 04:58:10;;;;;;;5.65;3.80;;;3.50;99.90;;;;;;2080901;28;20041;-73
2022/01/22 04:59:13;;;;;;;6.38;3.80;;;3.40;99.90;;;;;;2081398;28;20064;-73
2022/01/22 05:00:17;;;;;;;5.13;3.30;;;3.40;99.90;;;;;;2080364;28;20030;-73
2022/01/22 05:01:49;;;;;;;6.63;3.30;;;3.40;99.90;;;;;;2085759;28;20033;-72
2022/01/22 05:02:56;;;;;;;5.38;3.30;;;3.30;99.90;;;;;;2074607;28;20017;-73
2022/01/22 05:04:15;;;;;;;5.00;3.15;;;3.30;99.90;;;;;;2086201;28;20080;-73
2022/01/22 05:05:24;;;;;;;4.75;3.13;;;3.20;99.90;;;;;;2098411;28;20052;-74
2022/01/22 05:06:32;;;;;;;6.05;3.25;;;3.20;99.90;;;;;;2088768;28;20132;-73
2022/01/22 05:07:55;;;;;;;6.63;3.38;;;3.20;99.90;;;;;;2084049;28;20025;-72
2022/01/22 05:09:11;;;;;;;5.38;2.95;;;3.20;99.90;;;;;;2083218;28;20049;-73
2022/01/22 05:10:27;;;;;;;6.05;3.60;;;3.20;99.90;;;;;;2074482;28;20030;-74
2022/01/22 05:11:28;;;;;;;5.25;3.22;;;3.20;99.90;;;;;;2082125;28;20021;-71
2022/01/22 05:12:31;;;;;;;6.10;3.08;;;3.10;99.90;;;;;;2088586;28;20044;-71
2022/01/22 05:13:32;;;;;;;7.05;3.42;;;3.10;99.90;;;;;;2079690;28;20025;-71
2022/01/22 05:14:34;;;;;;;5.82;3.35;;;3.10;99.90;;;;;;2079844;28;20072;-71
2022/01/22 05:15:36;;;;;;;7.22;3.40;;;3.10;99.90;;;;;;2088878;28;20140;-71
2022/01/22 05:16:37;;;;;;;7.65;3.20;;;3.10;99.90;;;;;;2088451;28;20403;-72
2022/01/22 05:17:41;;;;;;;6.68;3.70;;;3.10;99.90;;;;;;2093074;28;20029;-71
2022/01/22 05:19:02;;;;;;;6.75;3.80;;;3.10;99.90;;;;;;2081548;28;20037;-71
2022/01/22 05:20:23;;;;;;;7.43;3.80;;;3.00;99.90;;;;;;2082247;28;20036;-71
2022/01/22 05:21:25;;;;;;;9.35;4.38;;;3.00;99.90;;;;;;2088299;28;20041;-72
2022/01/22 05:22:44;;;;;;;9.68;4.22;;;2.90;99.90;;;;;;2080362;28;20025;-72
2022/01/22 05:23:46;;;;;;;7.85;3.90;;;2.90;99.90;;;;;;2081771;28;20038;-72
2022/01/22 05:24:52;;;;;;;10.27;4.30;;;2.90;99.90;;;;;;2079803;28;20510;-72
2022/01/22 05:25:57;;;;;;;13.38;4.75;;;2.90;99.90;;;;;;2080626;28;20063;-72
2022/01/22 05:27:22;;;;;;;11.00;4.82;;;2.90;99.90;;;;;;2079928;28;20041;-71
2022/01/22 05:32:21;;;;;;;14.27;4.78;;;2.90;99.90;;;;;;2088357;28;20017;-71
2022/01/22 05:37:43;;;;;;;10.85;4.80;;;2.90;99.90;;;;;;2090502;28;20025;-72
2022/01/22 05:38:44;;;;;;;15.23;5.32;;;2.90;99.90;;;;;;2088331;28;20033;-74
2022/01/22 05:39:44;;;;;;;11.45;5.30;;;2.90;99.90;;;;;;2088184;28;20053;-73
2022/01/22 05:40:45;;;;;;;13.52;5.35;;;2.80;99.90;;;;;;2088360;28;20680;-70
2022/01/22 05:41:46;;;;;;;11.00;4.93;;;2.90;99.90;;;;;;2096558;28;20021;-74
2022/01/22 05:42:47;;;;;;;8.82;4.95;;;2.90;99.90;;;;;;2088160;28;20709;-72
2022/01/22 05:43:48;;;;;;;10.05;4.95;;;2.90;99.90;;;;;;2088005;28;20112;-74
2022/01/22 05:44:48;;;;;;;15.43;5.45;;;2.90;99.90;;;;;;2096381;28;20504;-73
2022/01/22 05:45:49;;;;;;;9.10;4.63;;;2.90;99.90;;;;;;2095174;28;20021;-74
2022/01/22 05:46:52;;;;;;;9.98;5.13;;;2.90;99.90;;;;;;2096865;28;20052;-74
2022/01/22 05:47:52;;;;;;;9.73;5.13;;;2.90;99.90;;;;;;2096926;28;20044;-72
2022/01/22 05:48:53;;;;;;;12.88;5.55;;;2.90;99.90;;;;;;2088600;28;20041;-73
2022/01/22 05:49:54;;;;;;;11.85;5.50;;;2.90;99.90;;;;;;2087851;28;20079;-71
2022/01/22 05:50:59;;;;;;;13.02;6.05;;;2.90;99.90;;;;;;2088689;28;20385;-72
2022/01/22 05:52:03;;;;;;;12.10;5.93;;;2.90;99.90;;;;;;2096272;28;20032;-73
2022/01/22 05:53:14;;;;;;;11.40;6.00;;;2.90;99.90;;;;;;2087828;28;20079;-73
2022/01/22 05:54:34;;;;;;;13.13;5.90;;;2.90;99.90;;;;;;2079925;28;20124;-74
2022/01/22 05:59:43;;;;;;;16.13;6.70;;;2.90;99.90;;;;;;2080095;28;20022;-73
2022/01/22 06:00:45;;;;;;;12.73;6.10;;;2.90;99.90;;;;;;2085201;28;20039;-73
2022/01/22 06:01:58;;;;;;;17.90;6.55;;;2.90;99.90;;;;;;2082031;28;20539;-75
2022/01/22 06:02:59;;;;;;;13.20;6.05;;;2.80;99.90;;;;;;2080643;28;20033;-74
2022/01/22 06:04:00;;;;;;;11.30;5.78;;;2.80;99.90;;;;;;2088212;28;20405;-72
2022/01/22 06:05:00;;;;;;;13.70;6.20;;;2.80;99.90;;;;;;2081042;28;20056;-73
2022/01/22 06:06:03;;;;;;;15.98;6.47;;;2.90;99.90;;;;;;2073509;28;20025;-73
2022/01/22 06:07:05;;;;;;;14.45;6.22;;;2.80;99.90;;;;;;2072214;28;20135;-72
2022/01/22 06:08:06;;;;;;;14.38;6.07;;;2.80;99.90;;;;;;2080953;28;20033;-73
2022/01/22 06:09:10;;;;;;;12.95;6.20;;;2.80;99.90;;;;;;2073080;28;20509;-72
2022/01/22 06:10:18;;;;;;;14.93;6.80;;;2.80;99.90;;;;;;2072720;28;20124;-73
2022/01/22 06:11:25;;;;;;;14.07;6.50;;;2.80;99.90;;;;;;2084209;28;20032;-73
2022/01/22 06:13:58;;;;;;;16.40;6.85;;;2.70;99.90;;;;;;2078958;28;20606;-74
2022/01/22 06:15:14;;;;;;;12.27;6.43;;;2.70;99.90;;;;;;2073782;28;20032;-73
2022/01/22 06:16:37;;;;;;;13.38;6.47;;;2.70;99.90;;;;;;2088734;28;20059;-74
2022/01/22 06:17:54;;;;;;;18.65;6.95;;;2.70;99.90;;;;;;2083292;28;20127;-74
2022/01/22 06:18:54;;;;;;;17.10;6.60;;;2.70;99.90;;;;;;2080408;28;20423;-74
2022/01/22 06:19:57;;;;;;;13.73;6.50;;;2.70;99.90;;;;;;2080210;28;20080;-74
2022/01/22 06:20:58;;;;;;;12.85;6.25;;;2.60;99.90;;;;;;2071796;28;20033;-73
2022/01/22 06:21:59;;;;;;;13.35;6.30;;;2.60;99.90;;;;;;2074099;28;20041;-74
2022/01/22 06:23:01;;;;;;;23.40;7.40;;;2.60;99.90;;;;;;2088458;28;20049;-74
2022/01/22 06:24:02;;;;;;;16.13;6.60;;;2.60;99.90;;;;;;2087959;28;20075;-74
2022/01/22 06:25:03;;;;;;;15.82;6.65;;;2.60;99.90;;;;;;2078551;28;20021;-74
2022/01/22 06:26:05;;;;;;;14.90;6.90;;;2.60;99.90;;;;;;2080309;28;20030;-75
2022/01/22 06:27:06;;;;;;;15.15;7.00;;;2.50;99.90;;;;;;2064368;28;20056;-74
2022/01/22 06:28:06;;;;;;;12.27;6.50;;;2.60;99.90;;;;;;2063608;28;20038;-75
2022/01/22 06:29:08;;;;;;;17.45;7.00;;;2.60;99.90;;;;;;2074772;28;20057;-75
2022/01/22 06:30:11;;;;;;;15.10;6.70;;;2.60;99.90;;;;;;2080238;28;20025;-74
2022/01/22 06:31:18;;;;;;;19.15;7.20;;;2.60;99.90;;;;;;2090226;28;20025;-74
2022/01/22 06:32:20;;;;;;;21.85;7.30;;;2.60;99.90;;;;;;2088380;28;20461;-75
2022/01/22 06:33:21;;;;;;;15.88;7.18;;;2.60;99.90;;;;;;2088394;28;20029;-74
2022/01/22 06:34:21;;;;;;;18.13;7.40;;;2.60;99.90;;;;;;2085083;28;20113;-74
2022/01/22 06:35:23;;;;;;;13.70;6.70;;;2.60;99.90;;;;;;2068606;28;20038;-74
2022/01/22 06:36:25;;;;;;;17.23;6.95;;;2.60;99.90;;;;;;2072131;28;20088;-74
2022/01/22 06:37:27;;;;;;;15.80;7.18;;;2.60;99.90;;;;;;2080575;28;20168;-74
2022/01/22 06:38:39;;;;;;;16.08;7.38;;;2.70;99.90;;;;;;2080516;28;20037;-75
2022/01/22 06:41:46;;;;;;;16.05;7.03;;;2.70;99.90;;;;;;2071460;28;20037;-74
2022/01/22 06:43:13;;;;;;;21.13;7.25;;;2.70;99.90;;;;;;2069434;28;20045;-75
2022/01/22 06:44:46;;;;;;;17.90;6.63;;;2.70;99.90;;;;;;2086568;28;20116;-74
2022/01/22 06:46:05;;;;;;;15.10;6.45;;;2.70;99.90;;;;;;2097383;28;20029;-74
2022/01/22 06:47:13;;;;;;;13.63;6.78;;;2.80;99.90;;;;;;2088487;28;20036;-76
2022/01/22 06:48:32;;;;;;;20.98;7.55;;;2.80;99.90;;;;;;2090816;28;20565;-75
2022/01/22 06:49:58;;;;;;;21.50;7.70;;;2.70;99.90;;;;;;2088238;28;20036;-74
2022/01/22 06:51:22;;;;;;;18.92;7.28;;;2.70;99.90;;;;;;2091369;28;20112;-74
2022/01/22 06:52:23;;;;;;;20.88;7.80;;;2.70;99.90;;;;;;2080665;28;20515;-74
2022/01/22 06:53:35;;;;;;;17.65;7.85;;;2.70;99.90;;;;;;2081157;28;20033;-76
2022/01/22 06:54:35;;;;;;;23.55;8.65;;;2.80;99.90;;;;;;2090877;28;20039;-74
2022/01/22 06:55:43;;;;;;;18.75;8.70;;;2.70;99.90;;;;;;2098353;28;20048;-74
2022/01/22 06:56:46;;;;;;;25.25;8.75;;;2.70;99.90;;;;;;2084224;28;20061;-75
2022/01/22 06:57:49;;;;;;;30.13;10.05;;;2.80;99.90;;;;;;2077417;28;20197;-74
2022/01/22 06:59:00;;;;;;;28.55;9.75;;;2.80;99.90;;;;;;2091515;28;20124;-75
2022/01/22 07:00:01;;;;;;;21.90;9.02;;;2.70;99.90;;;;;;2099152;28;20460;-75
2022/01/22 07:01:02;;;;;;;22.90;9.20;;;2.70;99.90;;;;;;2089590;28;20028;-75